sensor_id;sensor_type;location;lat;lon;timestamp;P1;durP1;ratioP1;P2;durP2;ratioP2
13997;SDS011;7074;51.508;7.018;2023-09-19T00:00:19;7.63;;;3.20;;
13997;SDS011;7074;51.508;7.018;2023-09-19T00:02:53;10.00;;;3.90;;
13997;SDS011;7074;51.508;7.018;2023-09-19T00:05:22;6.90;;;4.03;;
13997;SDS011;7074;51.508;7.018;2023-09-19T00:07:53;12.33;;;3.60;;
13997;SDS011;7074;51.508;7.018;2023-09-19T00:10:20;9.43;;;4.13;;
13997;SDS011;7074;51.508;7.018;2023-09-19T00:12:49;11.00;;;3.73;;
13997;SDS011;7074;51.508;7.018;2023-09-19T00:15:18;8.73;;;3.73;;
13997;SDS011;7074;51.508;7.018;2023-09-19T00:17:45;5.07;;;3.60;;
13997;SDS011;7074;51.508;7.018;2023-09-19T00:20:14;6.40;;;4.03;;
13997;SDS011;7074;51.508;7.018;2023-09-19T00:22:42;13.07;;;4.60;;
13997;SDS011;7074;51.508;7.018;2023-09-19T00:25:10;9.50;;;3.70;;
13997;SDS011;7074;51.508;7.018;2023-09-19T00:27:40;8.80;;;4.10;;
13997;SDS011;7074;51.508;7.018;2023-09-19T00:30:09;7.63;;;3.87;;
13997;SDS011;7074;51.508;7.018;2023-09-19T00:32:41;12.27;;;5.17;;
13997;SDS011;7074;51.508;7.018;2023-09-19T00:35:08;10.50;;;3.97;;
13997;SDS011;7074;51.508;7.018;2023-09-19T00:37:38;11.63;;;3.90;;
13997;SDS011;7074;51.508;7.018;2023-09-19T00:40:07;7.30;;;3.30;;
13997;SDS011;7074;51.508;7.018;2023-09-19T00:42:37;5.80;;;3.17;;
13997;SDS011;7074;51.508;7.018;2023-09-19T00:45:06;4.27;;;2.63;;
13997;SDS011;7074;51.508;7.018;2023-09-19T00:47:36;12.40;;;3.93;;
13997;SDS011;7074;51.508;7.018;2023-09-19T00:50:05;9.37;;;3.17;;
13997;SDS011;7074;51.508;7.018;2023-09-19T00:52:35;7.10;;;3.17;;
13997;SDS011;7074;51.508;7.018;2023-09-19T00:55:05;8.40;;;3.27;;
13997;SDS011;7074;51.508;7.018;2023-09-19T00:57:34;7.87;;;2.83;;
13997;SDS011;7074;51.508;7.018;2023-09-19T01:00:04;9.70;;;3.33;;
13997;SDS011;7074;51.508;7.018;2023-09-19T01:02:33;7.67;;;3.13;;
13997;SDS011;7074;51.508;7.018;2023-09-19T01:05:01;9.13;;;3.27;;
13997;SDS011;7074;51.508;7.018;2023-09-19T01:07:30;7.17;;;3.57;;
13997;SDS011;7074;51.508;7.018;2023-09-19T01:10:03;7.27;;;3.00;;
13997;SDS011;7074;51.508;7.018;2023-09-19T01:12:37;6.13;;;3.00;;
13997;SDS011;7074;51.508;7.018;2023-09-19T01:15:16;11.83;;;3.60;;
13997;SDS011;7074;51.508;7.018;2023-09-19T01:18:00;10.03;;;3.73;;
13997;SDS011;7074;51.508;7.018;2023-09-19T01:20:37;7.77;;;3.50;;
13997;SDS011;7074;51.508;7.018;2023-09-19T01:23:14;10.53;;;3.80;;
13997;SDS011;7074;51.508;7.018;2023-09-19T01:29:00;8.43;;;3.10;;
13997;SDS011;7074;51.508;7.018;2023-09-19T01:31:41;9.20;;;3.67;;
13997;SDS011;7074;51.508;7.018;2023-09-19T01:34:12;9.43;;;4.47;;
13997;SDS011;7074;51.508;7.018;2023-09-19T01:36:39;7.87;;;3.30;;
13997;SDS011;7074;51.508;7.018;2023-09-19T01:39:07;10.03;;;3.90;;
13997;SDS011;7074;51.508;7.018;2023-09-19T01:41:41;11.90;;;3.93;;
13997;SDS011;7074;51.508;7.018;2023-09-19T01:44:17;7.13;;;3.30;;
13997;SDS011;7074;51.508;7.018;2023-09-19T01:46:53;10.67;;;3.10;;
13997;SDS011;7074;51.508;7.018;2023-09-19T01:49:27;7.97;;;3.43;;
13997;SDS011;7074;51.508;7.018;2023-09-19T01:52:05;8.10;;;3.33;;
13997;SDS011;7074;51.508;7.018;2023-09-19T01:54:40;10.07;;;4.10;;
13997;SDS011;7074;51.508;7.018;2023-09-19T01:57:18;9.70;;;3.50;;
13997;SDS011;7074;51.508;7.018;2023-09-19T01:59:50;8.40;;;3.37;;
13997;SDS011;7074;51.508;7.018;2023-09-19T02:02:25;8.37;;;3.40;;
13997;SDS011;7074;51.508;7.018;2023-09-19T02:04:54;11.07;;;4.10;;
13997;SDS011;7074;51.508;7.018;2023-09-19T02:07:25;14.53;;;3.60;;
13997;SDS011;7074;51.508;7.018;2023-09-19T02:09:52;11.40;;;3.60;;
13997;SDS011;7074;51.508;7.018;2023-09-19T02:12:20;9.07;;;3.50;;
13997;SDS011;7074;51.508;7.018;2023-09-19T02:14:47;10.63;;;4.60;;
13997;SDS011;7074;51.508;7.018;2023-09-19T02:17:14;9.50;;;3.53;;
13997;SDS011;7074;51.508;7.018;2023-09-19T02:19:44;14.70;;;3.67;;
13997;SDS011;7074;51.508;7.018;2023-09-19T02:22:12;16.47;;;4.03;;
13997;SDS011;7074;51.508;7.018;2023-09-19T02:24:39;10.80;;;3.17;;
13997;SDS011;7074;51.508;7.018;2023-09-19T02:27:07;7.37;;;3.47;;
13997;SDS011;7074;51.508;7.018;2023-09-19T02:29:37;8.63;;;3.73;;
13997;SDS011;7074;51.508;7.018;2023-09-19T02:32:05;9.87;;;3.60;;
13997;SDS011;7074;51.508;7.018;2023-09-19T02:34:32;7.30;;;3.67;;
13997;SDS011;7074;51.508;7.018;2023-09-19T02:37:03;7.87;;;3.50;;
13997;SDS011;7074;51.508;7.018;2023-09-19T02:39:31;7.47;;;3.10;;
13997;SDS011;7074;51.508;7.018;2023-09-19T02:41:59;9.73;;;3.63;;
13997;SDS011;7074;51.508;7.018;2023-09-19T02:44:27;7.73;;;3.03;;
13997;SDS011;7074;51.508;7.018;2023-09-19T02:46:55;9.93;;;4.20;;
13997;SDS011;7074;51.508;7.018;2023-09-19T02:49:22;9.30;;;3.90;;
13997;SDS011;7074;51.508;7.018;2023-09-19T02:51:50;10.90;;;4.07;;
13997;SDS011;7074;51.508;7.018;2023-09-19T02:54:18;6.63;;;3.43;;
13997;SDS011;7074;51.508;7.018;2023-09-19T02:56:47;9.50;;;4.17;;
13997;SDS011;7074;51.508;7.018;2023-09-19T02:59:14;9.40;;;3.73;;
13997;SDS011;7074;51.508;7.018;2023-09-19T03:01:42;7.90;;;3.40;;
13997;SDS011;7074;51.508;7.018;2023-09-19T03:04:11;9.83;;;4.43;;
13997;SDS011;7074;51.508;7.018;2023-09-19T03:06:39;8.47;;;4.27;;
13997;SDS011;7074;51.508;7.018;2023-09-19T03:09:06;9.43;;;4.10;;
13997;SDS011;7074;51.508;7.018;2023-09-19T03:11:40;9.00;;;3.77;;
13997;SDS011;7074;51.508;7.018;2023-09-19T03:14:08;9.90;;;4.23;;
13997;SDS011;7074;51.508;7.018;2023-09-19T03:16:37;14.93;;;4.10;;
13997;SDS011;7074;51.508;7.018;2023-09-19T03:19:05;9.23;;;3.80;;
13997;SDS011;7074;51.508;7.018;2023-09-19T03:21:36;8.93;;;4.13;;
13997;SDS011;7074;51.508;7.018;2023-09-19T03:24:04;9.53;;;3.83;;
13997;SDS011;7074;51.508;7.018;2023-09-19T03:26:32;7.30;;;3.50;;
13997;SDS011;7074;51.508;7.018;2023-09-19T03:29:02;5.07;;;2.93;;
13997;SDS011;7074;51.508;7.018;2023-09-19T03:31:32;10.50;;;4.23;;
13997;SDS011;7074;51.508;7.018;2023-09-19T03:34:02;10.90;;;3.57;;
13997;SDS011;7074;51.508;7.018;2023-09-19T03:36:30;8.43;;;3.90;;
13997;SDS011;7074;51.508;7.018;2023-09-19T03:39:06;7.00;;;3.37;;
13997;SDS011;7074;51.508;7.018;2023-09-19T03:41:33;11.13;;;4.30;;
13997;SDS011;7074;51.508;7.018;2023-09-19T03:44:04;7.63;;;3.53;;
13997;SDS011;7074;51.508;7.018;2023-09-19T03:46:32;9.67;;;4.10;;
13997;SDS011;7074;51.508;7.018;2023-09-19T03:49:01;8.20;;;3.40;;
13997;SDS011;7074;51.508;7.018;2023-09-19T03:51:28;5.23;;;3.60;;
13997;SDS011;7074;51.508;7.018;2023-09-19T03:53:55;10.50;;;3.87;;
13997;SDS011;7074;51.508;7.018;2023-09-19T03:56:22;8.50;;;3.33;;
13997;SDS011;7074;51.508;7.018;2023-09-19T03:58:50;8.70;;;3.43;;
13997;SDS011;7074;51.508;7.018;2023-09-19T04:01:18;9.50;;;3.40;;
13997;SDS011;7074;51.508;7.018;2023-09-19T04:03:47;11.47;;;3.60;;
13997;SDS011;7074;51.508;7.018;2023-09-19T04:06:16;11.20;;;3.90;;
13997;SDS011;7074;51.508;7.018;2023-09-19T04:08:44;8.30;;;3.67;;
13997;SDS011;7074;51.508;7.018;2023-09-19T04:11:12;11.00;;;3.50;;
13997;SDS011;7074;51.508;7.018;2023-09-19T04:13:40;5.50;;;3.33;;
13997;SDS011;7074;51.508;7.018;2023-09-19T04:16:08;10.47;;;4.03;;
13997;SDS011;7074;51.508;7.018;2023-09-19T04:18:36;8.30;;;3.53;;
13997;SDS011;7074;51.508;7.018;2023-09-19T04:21:05;7.93;;;3.13;;
13997;SDS011;7074;51.508;7.018;2023-09-19T04:23:33;8.17;;;4.13;;
13997;SDS011;7074;51.508;7.018;2023-09-19T04:26:00;10.43;;;3.70;;
13997;SDS011;7074;51.508;7.018;2023-09-19T04:28:29;9.43;;;3.30;;
13997;SDS011;7074;51.508;7.018;2023-09-19T04:30:56;9.17;;;3.50;;
13997;SDS011;7074;51.508;7.018;2023-09-19T04:33:24;10.43;;;3.40;;
13997;SDS011;7074;51.508;7.018;2023-09-19T04:35:54;7.97;;;3.33;;
13997;SDS011;7074;51.508;7.018;2023-09-19T04:38:21;7.73;;;3.40;;
13997;SDS011;7074;51.508;7.018;2023-09-19T04:40:48;5.83;;;3.30;;
13997;SDS011;7074;51.508;7.018;2023-09-19T04:43:15;8.33;;;3.40;;
13997;SDS011;7074;51.508;7.018;2023-09-19T04:45:43;11.27;;;3.30;;
13997;SDS011;7074;51.508;7.018;2023-09-19T04:48:10;15.77;;;4.07;;
13997;SDS011;7074;51.508;7.018;2023-09-19T04:50:37;7.57;;;3.30;;
13997;SDS011;7074;51.508;7.018;2023-09-19T04:53:05;10.87;;;4.37;;
13997;SDS011;7074;51.508;7.018;2023-09-19T04:55:33;6.70;;;3.17;;
13997;SDS011;7074;51.508;7.018;2023-09-19T04:58:00;5.93;;;3.07;;
13997;SDS011;7074;51.508;7.018;2023-09-19T05:00:27;7.17;;;3.10;;
13997;SDS011;7074;51.508;7.018;2023-09-19T05:02:56;10.63;;;3.83;;
13997;SDS011;7074;51.508;7.018;2023-09-19T05:05:23;7.37;;;3.10;;
13997;SDS011;7074;51.508;7.018;2023-09-19T05:07:51;7.73;;;3.10;;
13997;SDS011;7074;51.508;7.018;2023-09-19T05:10:21;12.53;;;3.90;;
13997;SDS011;7074;51.508;7.018;2023-09-19T05:12:48;9.47;;;3.70;;
13997;SDS011;7074;51.508;7.018;2023-09-19T05:15:18;11.97;;;3.83;;
13997;SDS011;7074;51.508;7.018;2023-09-19T05:17:49;7.23;;;3.07;;
13997;SDS011;7074;51.508;7.018;2023-09-19T05:20:20;8.33;;;3.60;;
13997;SDS011;7074;51.508;7.018;2023-09-19T05:22:58;9.07;;;3.63;;
13997;SDS011;7074;51.508;7.018;2023-09-19T05:25:29;8.47;;;3.60;;
13997;SDS011;7074;51.508;7.018;2023-09-19T05:27:57;8.77;;;3.90;;
13997;SDS011;7074;51.508;7.018;2023-09-19T05:30:26;10.97;;;3.53;;
13997;SDS011;7074;51.508;7.018;2023-09-19T05:32:54;9.57;;;3.07;;
13997;SDS011;7074;51.508;7.018;2023-09-19T05:35:22;5.97;;;3.50;;
13997;SDS011;7074;51.508;7.018;2023-09-19T05:37:50;9.20;;;3.40;;
13997;SDS011;7074;51.508;7.018;2023-09-19T05:40:18;11.57;;;4.50;;
13997;SDS011;7074;51.508;7.018;2023-09-19T05:42:46;10.30;;;3.73;;
13997;SDS011;7074;51.508;7.018;2023-09-19T05:45:16;8.30;;;3.00;;
13997;SDS011;7074;51.508;7.018;2023-09-19T05:47:47;9.20;;;3.33;;
13997;SDS011;7074;51.508;7.018;2023-09-19T05:50:15;9.53;;;3.47;;
13997;SDS011;7074;51.508;7.018;2023-09-19T05:52:43;12.07;;;5.03;;
13997;SDS011;7074;51.508;7.018;2023-09-19T05:55:17;8.27;;;4.20;;
13997;SDS011;7074;51.508;7.018;2023-09-19T05:57:50;10.83;;;3.60;;
13997;SDS011;7074;51.508;7.018;2023-09-19T06:00:18;8.97;;;3.50;;
13997;SDS011;7074;51.508;7.018;2023-09-19T06:02:49;15.03;;;4.17;;
13997;SDS011;7074;51.508;7.018;2023-09-19T06:05:17;11.67;;;3.93;;
13997;SDS011;7074;51.508;7.018;2023-09-19T06:07:48;10.60;;;4.13;;
13997;SDS011;7074;51.508;7.018;2023-09-19T06:10:16;12.53;;;3.90;;
13997;SDS011;7074;51.508;7.018;2023-09-19T06:12:43;11.67;;;3.63;;
13997;SDS011;7074;51.508;7.018;2023-09-19T06:15:12;10.33;;;3.87;;
13997;SDS011;7074;51.508;7.018;2023-09-19T06:17:42;12.73;;;4.23;;
13997;SDS011;7074;51.508;7.018;2023-09-19T06:20:12;7.47;;;3.43;;
13997;SDS011;7074;51.508;7.018;2023-09-19T06:22:40;8.90;;;3.83;;
13997;SDS011;7074;51.508;7.018;2023-09-19T06:25:08;9.73;;;3.80;;
13997;SDS011;7074;51.508;7.018;2023-09-19T06:27:37;11.87;;;3.83;;
13997;SDS011;7074;51.508;7.018;2023-09-19T06:30:07;10.90;;;3.50;;
13997;SDS011;7074;51.508;7.018;2023-09-19T06:32:36;15.37;;;5.97;;
13997;SDS011;7074;51.508;7.018;2023-09-19T06:35:03;11.47;;;5.20;;
13997;SDS011;7074;51.508;7.018;2023-09-19T06:37:33;9.27;;;3.80;;
13997;SDS011;7074;51.508;7.018;2023-09-19T06:40:01;9.70;;;3.83;;
13997;SDS011;7074;51.508;7.018;2023-09-19T06:42:31;10.27;;;3.50;;
13997;SDS011;7074;51.508;7.018;2023-09-19T06:44:58;10.50;;;4.50;;
13997;SDS011;7074;51.508;7.018;2023-09-19T06:47:25;13.60;;;4.30;;
13997;SDS011;7074;51.508;7.018;2023-09-19T06:49:54;7.90;;;4.37;;
13997;SDS011;7074;51.508;7.018;2023-09-19T06:52:21;8.03;;;3.70;;
13997;SDS011;7074;51.508;7.018;2023-09-19T06:54:48;12.87;;;4.77;;
13997;SDS011;7074;51.508;7.018;2023-09-19T06:57:18;12.27;;;3.90;;
13997;SDS011;7074;51.508;7.018;2023-09-19T06:59:45;11.30;;;4.90;;
13997;SDS011;7074;51.508;7.018;2023-09-19T07:02:12;8.73;;;3.33;;
13997;SDS011;7074;51.508;7.018;2023-09-19T07:04:40;8.30;;;3.20;;
13997;SDS011;7074;51.508;7.018;2023-09-19T07:07:08;6.90;;;3.57;;
13997;SDS011;7074;51.508;7.018;2023-09-19T07:09:37;8.33;;;3.90;;
13997;SDS011;7074;51.508;7.018;2023-09-19T07:12:04;6.20;;;3.20;;
13997;SDS011;7074;51.508;7.018;2023-09-19T07:14:32;11.27;;;3.70;;
13997;SDS011;7074;51.508;7.018;2023-09-19T07:16:59;13.70;;;3.80;;
13997;SDS011;7074;51.508;7.018;2023-09-19T07:19:27;7.17;;;3.40;;
13997;SDS011;7074;51.508;7.018;2023-09-19T07:21:55;5.93;;;3.47;;
13997;SDS011;7074;51.508;7.018;2023-09-19T07:24:25;8.00;;;3.07;;
13997;SDS011;7074;51.508;7.018;2023-09-19T07:26:54;11.27;;;3.80;;
13997;SDS011;7074;51.508;7.018;2023-09-19T07:29:21;7.60;;;3.07;;
13997;SDS011;7074;51.508;7.018;2023-09-19T07:31:49;8.70;;;3.37;;
13997;SDS011;7074;51.508;7.018;2023-09-19T07:34:16;9.30;;;3.20;;
13997;SDS011;7074;51.508;7.018;2023-09-19T07:36:43;9.43;;;3.13;;
13997;SDS011;7074;51.508;7.018;2023-09-19T07:39:12;9.13;;;3.20;;
13997;SDS011;7074;51.508;7.018;2023-09-19T07:41:41;9.37;;;4.73;;
13997;SDS011;7074;51.508;7.018;2023-09-19T07:44:08;7.07;;;3.27;;
13997;SDS011;7074;51.508;7.018;2023-09-19T07:46:36;7.57;;;3.53;;
13997;SDS011;7074;51.508;7.018;2023-09-19T07:49:04;11.00;;;3.33;;
13997;SDS011;7074;51.508;7.018;2023-09-19T07:51:31;7.57;;;3.43;;
13997;SDS011;7074;51.508;7.018;2023-09-19T07:53:59;9.00;;;3.90;;
13997;SDS011;7074;51.508;7.018;2023-09-19T07:56:26;10.93;;;4.13;;
13997;SDS011;7074;51.508;7.018;2023-09-19T07:58:55;6.53;;;3.63;;
13997;SDS011;7074;51.508;7.018;2023-09-19T08:01:24;7.77;;;3.47;;
13997;SDS011;7074;51.508;7.018;2023-09-19T08:03:52;7.10;;;3.30;;
13997;SDS011;7074;51.508;7.018;2023-09-19T08:06:20;7.10;;;3.67;;
13997;SDS011;7074;51.508;7.018;2023-09-19T08:08:47;9.83;;;4.00;;
13997;SDS011;7074;51.508;7.018;2023-09-19T08:11:19;8.07;;;3.00;;
13997;SDS011;7074;51.508;7.018;2023-09-19T08:13:46;9.90;;;4.23;;
13997;SDS011;7074;51.508;7.018;2023-09-19T08:16:15;17.23;;;4.13;;
13997;SDS011;7074;51.508;7.018;2023-09-19T08:18:47;15.50;;;4.10;;
13997;SDS011;7074;51.508;7.018;2023-09-19T08:21:20;9.53;;;3.30;;
13997;SDS011;7074;51.508;7.018;2023-09-19T08:23:47;10.77;;;3.83;;
13997;SDS011;7074;51.508;7.018;2023-09-19T08:26:15;9.07;;;3.37;;
13997;SDS011;7074;51.508;7.018;2023-09-19T08:28:42;10.47;;;3.00;;
13997;SDS011;7074;51.508;7.018;2023-09-19T08:31:09;10.33;;;3.10;;
13997;SDS011;7074;51.508;7.018;2023-09-19T08:33:38;8.37;;;3.77;;
13997;SDS011;7074;51.508;7.018;2023-09-19T08:36:06;10.70;;;3.83;;
13997;SDS011;7074;51.508;7.018;2023-09-19T08:38:34;9.90;;;3.70;;
13997;SDS011;7074;51.508;7.018;2023-09-19T08:41:05;10.47;;;3.90;;
13997;SDS011;7074;51.508;7.018;2023-09-19T08:43:34;9.03;;;3.63;;
13997;SDS011;7074;51.508;7.018;2023-09-19T08:46:03;7.37;;;3.10;;
13997;SDS011;7074;51.508;7.018;2023-09-19T08:48:36;10.80;;;3.10;;
13997;SDS011;7074;51.508;7.018;2023-09-19T08:51:16;6.77;;;2.80;;
13997;SDS011;7074;51.508;7.018;2023-09-19T08:53:50;11.67;;;3.10;;
13997;SDS011;7074;51.508;7.018;2023-09-19T08:56:18;7.57;;;3.50;;
13997;SDS011;7074;51.508;7.018;2023-09-19T08:58:50;7.53;;;3.00;;
13997;SDS011;7074;51.508;7.018;2023-09-19T09:01:20;6.50;;;3.67;;
13997;SDS011;7074;51.508;7.018;2023-09-19T09:03:52;11.80;;;3.70;;
13997;SDS011;7074;51.508;7.018;2023-09-19T09:06:20;10.63;;;3.87;;
13997;SDS011;7074;51.508;7.018;2023-09-19T09:08:49;8.57;;;3.77;;
13997;SDS011;7074;51.508;7.018;2023-09-19T09:11:17;6.40;;;3.40;;
13997;SDS011;7074;51.508;7.018;2023-09-19T09:13:46;8.83;;;3.30;;
13997;SDS011;7074;51.508;7.018;2023-09-19T09:16:14;12.03;;;3.10;;
13997;SDS011;7074;51.508;7.018;2023-09-19T09:18:44;12.13;;;3.23;;
13997;SDS011;7074;51.508;7.018;2023-09-19T09:21:13;9.53;;;3.10;;
13997;SDS011;7074;51.508;7.018;2023-09-19T09:23:41;9.47;;;3.67;;
13997;SDS011;7074;51.508;7.018;2023-09-19T09:26:09;11.87;;;3.43;;
13997;SDS011;7074;51.508;7.018;2023-09-19T09:28:38;5.67;;;2.87;;
13997;SDS011;7074;51.508;7.018;2023-09-19T09:31:21;7.93;;;3.00;;
13997;SDS011;7074;51.508;7.018;2023-09-19T09:33:52;7.07;;;2.87;;
13997;SDS011;7074;51.508;7.018;2023-09-19T09:36:34;6.43;;;2.60;;
13997;SDS011;7074;51.508;7.018;2023-09-19T09:39:03;6.33;;;3.53;;
13997;SDS011;7074;51.508;7.018;2023-09-19T09:41:41;10.13;;;3.37;;
13997;SDS011;7074;51.508;7.018;2023-09-19T09:44:12;13.03;;;4.27;;
13997;SDS011;7074;51.508;7.018;2023-09-19T09:46:42;12.67;;;3.90;;
13997;SDS011;7074;51.508;7.018;2023-09-19T09:49:24;10.67;;;3.70;;
13997;SDS011;7074;51.508;7.018;2023-09-19T09:52:01;9.60;;;3.30;;
13997;SDS011;7074;51.508;7.018;2023-09-19T09:54:33;10.13;;;3.30;;
13997;SDS011;7074;51.508;7.018;2023-09-19T09:57:03;4.77;;;2.50;;
13997;SDS011;7074;51.508;7.018;2023-09-19T09:59:45;6.60;;;3.23;;
13997;SDS011;7074;51.508;7.018;2023-09-19T10:02:19;6.93;;;3.23;;
13997;SDS011;7074;51.508;7.018;2023-09-19T10:04:50;7.83;;;2.60;;
13997;SDS011;7074;51.508;7.018;2023-09-19T10:07:26;7.77;;;3.10;;
13997;SDS011;7074;51.508;7.018;2023-09-19T10:09:57;7.97;;;3.57;;
13997;SDS011;7074;51.508;7.018;2023-09-19T10:12:30;8.17;;;2.87;;
13997;SDS011;7074;51.508;7.018;2023-09-19T10:14:59;8.90;;;3.53;;
13997;SDS011;7074;51.508;7.018;2023-09-19T10:17:29;8.67;;;2.90;;
13997;SDS011;7074;51.508;7.018;2023-09-19T10:19:57;4.20;;;2.60;;
13997;SDS011;7074;51.508;7.018;2023-09-19T10:22:36;6.50;;;2.70;;
13997;SDS011;7074;51.508;7.018;2023-09-19T10:25:04;10.83;;;3.23;;
13997;SDS011;7074;51.508;7.018;2023-09-19T10:27:33;9.30;;;3.07;;
13997;SDS011;7074;51.508;7.018;2023-09-19T10:30:04;5.97;;;2.60;;
13997;SDS011;7074;51.508;7.018;2023-09-19T10:32:35;10.90;;;2.70;;
13997;SDS011;7074;51.508;7.018;2023-09-19T10:35:06;11.30;;;3.53;;
13997;SDS011;7074;51.508;7.018;2023-09-19T10:37:35;8.83;;;3.07;;
13997;SDS011;7074;51.508;7.018;2023-09-19T10:40:05;10.80;;;3.33;;
13997;SDS011;7074;51.508;7.018;2023-09-19T10:42:37;7.77;;;3.10;;
13997;SDS011;7074;51.508;7.018;2023-09-19T10:45:08;7.93;;;3.40;;
13997;SDS011;7074;51.508;7.018;2023-09-19T10:47:38;6.47;;;2.50;;
13997;SDS011;7074;51.508;7.018;2023-09-19T10:50:06;7.70;;;2.57;;
13997;SDS011;7074;51.508;7.018;2023-09-19T10:52:40;5.77;;;2.70;;
13997;SDS011;7074;51.508;7.018;2023-09-19T10:55:09;7.73;;;2.83;;
13997;SDS011;7074;51.508;7.018;2023-09-19T10:57:43;8.00;;;3.37;;
13997;SDS011;7074;51.508;7.018;2023-09-19T11:00:13;6.73;;;3.53;;
13997;SDS011;7074;51.508;7.018;2023-09-19T11:06:08;6.33;;;2.87;;
13997;SDS011;7074;51.508;7.018;2023-09-19T11:11:50;13.43;;;4.03;;
13997;SDS011;7074;51.508;7.018;2023-09-19T11:14:29;8.87;;;3.50;;
13997;SDS011;7074;51.508;7.018;2023-09-19T11:20:17;8.53;;;3.30;;
13997;SDS011;7074;51.508;7.018;2023-09-19T11:23:17;7.23;;;3.07;;
13997;SDS011;7074;51.508;7.018;2023-09-19T11:25:50;10.57;;;3.40;;
13997;SDS011;7074;51.508;7.018;2023-09-19T11:28:29;5.67;;;2.90;;
13997;SDS011;7074;51.508;7.018;2023-09-19T11:40:37;6.23;;;3.30;;
13997;SDS011;7074;51.508;7.018;2023-09-19T11:46:03;7.37;;;2.93;;
13997;SDS011;7074;51.508;7.018;2023-09-19T11:48:40;5.57;;;2.93;;
13997;SDS011;7074;51.508;7.018;2023-09-19T11:51:13;7.70;;;2.77;;
13997;SDS011;7074;51.508;7.018;2023-09-19T11:53:47;7.90;;;3.00;;
13997;SDS011;7074;51.508;7.018;2023-09-19T11:56:16;6.93;;;2.60;;
13997;SDS011;7074;51.508;7.018;2023-09-19T11:58:47;5.90;;;2.80;;
13997;SDS011;7074;51.508;7.018;2023-09-19T12:01:23;7.77;;;3.17;;
13997;SDS011;7074;51.508;7.018;2023-09-19T12:03:54;6.37;;;2.87;;
13997;SDS011;7074;51.508;7.018;2023-09-19T12:06:23;9.47;;;3.27;;
13997;SDS011;7074;51.508;7.018;2023-09-19T12:08:52;9.97;;;3.53;;
13997;SDS011;7074;51.508;7.018;2023-09-19T12:11:21;7.17;;;3.17;;
13997;SDS011;7074;51.508;7.018;2023-09-19T12:13:51;6.10;;;2.93;;
13997;SDS011;7074;51.508;7.018;2023-09-19T12:16:24;9.33;;;2.87;;
13997;SDS011;7074;51.508;7.018;2023-09-19T12:18:51;7.47;;;2.90;;
13997;SDS011;7074;51.508;7.018;2023-09-19T12:21:23;4.83;;;2.60;;
13997;SDS011;7074;51.508;7.018;2023-09-19T12:24:05;5.33;;;2.57;;
13997;SDS011;7074;51.508;7.018;2023-09-19T12:26:42;5.37;;;2.90;;
13997;SDS011;7074;51.508;7.018;2023-09-19T12:29:15;5.17;;;2.40;;
13997;SDS011;7074;51.508;7.018;2023-09-19T12:31:51;5.97;;;2.37;;
13997;SDS011;7074;51.508;7.018;2023-09-19T12:34:21;4.80;;;3.03;;
13997;SDS011;7074;51.508;7.018;2023-09-19T12:37:05;6.57;;;2.60;;
13997;SDS011;7074;51.508;7.018;2023-09-19T12:39:37;6.23;;;2.50;;
13997;SDS011;7074;51.508;7.018;2023-09-19T12:42:07;7.57;;;3.10;;
13997;SDS011;7074;51.508;7.018;2023-09-19T12:44:42;7.03;;;2.90;;
13997;SDS011;7074;51.508;7.018;2023-09-19T12:47:11;8.40;;;3.00;;
13997;SDS011;7074;51.508;7.018;2023-09-19T12:52:44;5.83;;;2.43;;
13997;SDS011;7074;51.508;7.018;2023-09-19T12:55:21;4.73;;;2.53;;
13997;SDS011;7074;51.508;7.018;2023-09-19T12:57:59;7.23;;;2.77;;
13997;SDS011;7074;51.508;7.018;2023-09-19T13:00:37;8.00;;;2.93;;
13997;SDS011;7074;51.508;7.018;2023-09-19T13:03:11;6.03;;;2.80;;
13997;SDS011;7074;51.508;7.018;2023-09-19T13:05:48;5.93;;;2.37;;
13997;SDS011;7074;51.508;7.018;2023-09-19T13:08:17;5.73;;;2.60;;
13997;SDS011;7074;51.508;7.018;2023-09-19T13:11:05;6.33;;;2.07;;
13997;SDS011;7074;51.508;7.018;2023-09-19T13:13:35;3.80;;;2.60;;
13997;SDS011;7074;51.508;7.018;2023-09-19T13:16:05;7.43;;;2.77;;
13997;SDS011;7074;51.508;7.018;2023-09-19T13:18:43;4.07;;;2.40;;
13997;SDS011;7074;51.508;7.018;2023-09-19T13:21:16;8.27;;;2.77;;
13997;SDS011;7074;51.508;7.018;2023-09-19T13:23:51;8.00;;;2.30;;
13997;SDS011;7074;51.508;7.018;2023-09-19T13:26:19;5.50;;;2.43;;
13997;SDS011;7074;51.508;7.018;2023-09-19T13:28:48;6.83;;;2.77;;
13997;SDS011;7074;51.508;7.018;2023-09-19T13:31:17;8.27;;;2.67;;
13997;SDS011;7074;51.508;7.018;2023-09-19T13:33:45;7.70;;;2.20;;
13997;SDS011;7074;51.508;7.018;2023-09-19T13:36:15;7.27;;;2.60;;
13997;SDS011;7074;51.508;7.018;2023-09-19T13:38:44;6.17;;;2.10;;
13997;SDS011;7074;51.508;7.018;2023-09-19T13:41:14;4.03;;;2.10;;
13997;SDS011;7074;51.508;7.018;2023-09-19T13:43:41;3.40;;;2.00;;
13997;SDS011;7074;51.508;7.018;2023-09-19T13:46:09;5.93;;;2.80;;
13997;SDS011;7074;51.508;7.018;2023-09-19T13:48:42;4.47;;;2.03;;
13997;SDS011;7074;51.508;7.018;2023-09-19T13:51:09;7.60;;;2.60;;
13997;SDS011;7074;51.508;7.018;2023-09-19T13:53:37;5.50;;;2.83;;
13997;SDS011;7074;51.508;7.018;2023-09-19T13:56:04;4.20;;;2.03;;
13997;SDS011;7074;51.508;7.018;2023-09-19T13:58:32;4.37;;;2.10;;
13997;SDS011;7074;51.508;7.018;2023-09-19T14:00:59;7.50;;;2.10;;
13997;SDS011;7074;51.508;7.018;2023-09-19T14:03:27;7.70;;;2.10;;
13997;SDS011;7074;51.508;7.018;2023-09-19T14:05:55;7.50;;;2.60;;
13997;SDS011;7074;51.508;7.018;2023-09-19T14:08:22;3.63;;;2.20;;
13997;SDS011;7074;51.508;7.018;2023-09-19T14:10:50;5.17;;;2.17;;
13997;SDS011;7074;51.508;7.018;2023-09-19T14:13:18;6.20;;;1.90;;
13997;SDS011;7074;51.508;7.018;2023-09-19T14:15:46;4.97;;;2.73;;
13997;SDS011;7074;51.508;7.018;2023-09-19T14:18:13;3.53;;;2.00;;
13997;SDS011;7074;51.508;7.018;2023-09-19T14:20:41;4.13;;;2.70;;
13997;SDS011;7074;51.508;7.018;2023-09-19T14:23:09;4.73;;;1.80;;
13997;SDS011;7074;51.508;7.018;2023-09-19T14:25:37;4.43;;;1.80;;
13997;SDS011;7074;51.508;7.018;2023-09-19T14:28:04;6.67;;;2.00;;
13997;SDS011;7074;51.508;7.018;2023-09-19T14:30:34;5.00;;;2.43;;
13997;SDS011;7074;51.508;7.018;2023-09-19T14:33:02;5.93;;;1.90;;
13997;SDS011;7074;51.508;7.018;2023-09-19T14:35:30;3.93;;;2.20;;
13997;SDS011;7074;51.508;7.018;2023-09-19T14:37:57;4.90;;;2.30;;
13997;SDS011;7074;51.508;7.018;2023-09-19T14:40:26;4.13;;;2.03;;
13997;SDS011;7074;51.508;7.018;2023-09-19T14:42:53;4.10;;;1.80;;
13997;SDS011;7074;51.508;7.018;2023-09-19T14:45:20;4.93;;;2.27;;
13997;SDS011;7074;51.508;7.018;2023-09-19T14:47:50;6.97;;;2.07;;
13997;SDS011;7074;51.508;7.018;2023-09-19T14:50:20;5.67;;;2.30;;
13997;SDS011;7074;51.508;7.018;2023-09-19T14:52:47;5.70;;;2.30;;
13997;SDS011;7074;51.508;7.018;2023-09-19T14:55:17;5.10;;;1.97;;
13997;SDS011;7074;51.508;7.018;2023-09-19T14:57:50;7.47;;;2.20;;
13997;SDS011;7074;51.508;7.018;2023-09-19T15:00:18;4.90;;;1.87;;
13997;SDS011;7074;51.508;7.018;2023-09-19T15:02:46;5.50;;;1.80;;
13997;SDS011;7074;51.508;7.018;2023-09-19T15:05:15;4.23;;;2.03;;
13997;SDS011;7074;51.508;7.018;2023-09-19T15:07:42;2.47;;;1.70;;
13997;SDS011;7074;51.508;7.018;2023-09-19T15:10:10;3.97;;;1.90;;
13997;SDS011;7074;51.508;7.018;2023-09-19T15:12:38;4.33;;;2.00;;
13997;SDS011;7074;51.508;7.018;2023-09-19T15:15:07;3.07;;;1.83;;
13997;SDS011;7074;51.508;7.018;2023-09-19T15:17:35;3.00;;;2.00;;
13997;SDS011;7074;51.508;7.018;2023-09-19T15:20:03;3.93;;;2.00;;
13997;SDS011;7074;51.508;7.018;2023-09-19T15:22:32;4.17;;;2.20;;
13997;SDS011;7074;51.508;7.018;2023-09-19T15:25:00;2.43;;;1.70;;
13997;SDS011;7074;51.508;7.018;2023-09-19T15:27:29;3.47;;;1.60;;
13997;SDS011;7074;51.508;7.018;2023-09-19T15:29:58;4.27;;;1.67;;
13997;SDS011;7074;51.508;7.018;2023-09-19T15:32:29;3.83;;;2.17;;
13997;SDS011;7074;51.508;7.018;2023-09-19T15:34:57;5.00;;;1.83;;
13997;SDS011;7074;51.508;7.018;2023-09-19T15:37:24;3.50;;;1.80;;
13997;SDS011;7074;51.508;7.018;2023-09-19T15:39:53;4.50;;;2.23;;
13997;SDS011;7074;51.508;7.018;2023-09-19T15:42:20;3.43;;;1.80;;